sensor_id;sensor_type;location;lat;lon;timestamp;temperature;humidity
80228;DHT22;69539;42.138;24.742;2023-05-23T00:00:23;21.30;44.70
80228;DHT22;69539;42.138;24.742;2023-05-23T00:02:49;21.30;44.50
80228;DHT22;69539;42.138;24.742;2023-05-23T00:05:15;21.20;44.40
80228;DHT22;69539;42.138;24.742;2023-05-23T00:07:43;21.20;44.40
80228;DHT22;69539;42.138;24.742;2023-05-23T00:10:09;21.20;44.30
80228;DHT22;69539;42.138;24.742;2023-05-23T00:12:35;21.20;44.30
80228;DHT22;69539;42.138;24.742;2023-05-23T00:15:05;21.20;44.20
80228;DHT22;69539;42.138;24.742;2023-05-23T00:17:34;21.20;44.20
80228;DHT22;69539;42.138;24.742;2023-05-23T00:20:02;21.20;44.20
80228;DHT22;69539;42.138;24.742;2023-05-23T00:22:28;21.10;44.10
80228;DHT22;69539;42.138;24.742;2023-05-23T00:24:54;21.10;44.20
80228;DHT22;69539;42.138;24.742;2023-05-23T00:27:22;21.10;44.20
80228;DHT22;69539;42.138;24.742;2023-05-23T00:29:48;21.10;44.20
80228;DHT22;69539;42.138;24.742;2023-05-23T00:32:13;21.10;44.20
80228;DHT22;69539;42.138;24.742;2023-05-23T00:34:39;21.10;44.20
80228;DHT22;69539;42.138;24.742;2023-05-23T00:37:05;21.00;44.20
80228;DHT22;69539;42.138;24.742;2023-05-23T00:39:30;21.00;44.20
80228;DHT22;69539;42.138;24.742;2023-05-23T00:41:56;21.00;44.20
80228;DHT22;69539;42.138;24.742;2023-05-23T00:44:22;21.00;44.20
80228;DHT22;69539;42.138;24.742;2023-05-23T00:46:51;21.00;44.20
80228;DHT22;69539;42.138;24.742;2023-05-23T00:49:18;21.00;44.30
80228;DHT22;69539;42.138;24.742;2023-05-23T00:51:45;21.00;44.50
80228;DHT22;69539;42.138;24.742;2023-05-23T00:54:11;20.90;44.40
80228;DHT22;69539;42.138;24.742;2023-05-23T00:56:38;20.90;44.50
80228;DHT22;69539;42.138;24.742;2023-05-23T00:59:04;20.90;44.60
80228;DHT22;69539;42.138;24.742;2023-05-23T01:01:31;20.80;44.70
80228;DHT22;69539;42.138;24.742;2023-05-23T01:03:57;20.90;44.80
80228;DHT22;69539;42.138;24.742;2023-05-23T01:06:23;20.80;44.80
80228;DHT22;69539;42.138;24.742;2023-05-23T01:08:49;20.80;44.90
80228;DHT22;69539;42.138;24.742;2023-05-23T01:11:37;20.80;45.00
80228;DHT22;69539;42.138;24.742;2023-05-23T01:14:18;20.80;45.10
80228;DHT22;69539;42.138;24.742;2023-05-23T01:16:57;20.80;45.20
80228;DHT22;69539;42.138;24.742;2023-05-23T01:19:48;20.70;45.20
80228;DHT22;69539;42.138;24.742;2023-05-23T01:27:56;20.70;45.60
80228;DHT22;69539;42.138;24.742;2023-05-23T01:30:26;20.70;45.60
80228;DHT22;69539;42.138;24.742;2023-05-23T01:32:55;20.60;45.70
80228;DHT22;69539;42.138;24.742;2023-05-23T01:35:26;20.60;45.80
80228;DHT22;69539;42.138;24.742;2023-05-23T01:37:53;20.60;45.90
80228;DHT22;69539;42.138;24.742;2023-05-23T01:40:19;20.50;45.80
80228;DHT22;69539;42.138;24.742;2023-05-23T01:42:45;20.50;45.90
80228;DHT22;69539;42.138;24.742;2023-05-23T01:45:11;20.50;46.00
80228;DHT22;69539;42.138;24.742;2023-05-23T01:47:39;20.50;46.00
80228;DHT22;69539;42.138;24.742;2023-05-23T01:50:06;20.50;46.00
80228;DHT22;69539;42.138;24.742;2023-05-23T01:52:33;20.40;47.10
80228;DHT22;69539;42.138;24.742;2023-05-23T01:54:59;20.40;45.90
80228;DHT22;69539;42.138;24.742;2023-05-23T01:57:26;20.40;45.90
80228;DHT22;69539;42.138;24.742;2023-05-23T01:59:53;20.40;45.90
80228;DHT22;69539;42.138;24.742;2023-05-23T02:02:18;20.40;45.80
80228;DHT22;69539;42.138;24.742;2023-05-23T02:04:44;20.30;45.80
80228;DHT22;69539;42.138;24.742;2023-05-23T02:07:09;20.40;45.80
80228;DHT22;69539;42.138;24.742;2023-05-23T02:09:35;20.30;45.80
80228;DHT22;69539;42.138;24.742;2023-05-23T02:12:01;20.30;45.80
80228;DHT22;69539;42.138;24.742;2023-05-23T02:14:26;20.30;45.70
80228;DHT22;69539;42.138;24.742;2023-05-23T02:16:53;20.30;45.80
80228;DHT22;69539;42.138;24.742;2023-05-23T02:19:19;20.30;45.80
80228;DHT22;69539;42.138;24.742;2023-05-23T02:21:45;20.30;45.80
80228;DHT22;69539;42.138;24.742;2023-05-23T02:24:10;20.30;45.80
80228;DHT22;69539;42.138;24.742;2023-05-23T02:26:36;20.20;45.60
80228;DHT22;69539;42.138;24.742;2023-05-23T02:29:02;20.20;45.40
80228;DHT22;69539;42.138;24.742;2023-05-23T02:31:27;20.20;45.40
80228;DHT22;69539;42.138;24.742;2023-05-23T02:33:53;20.20;45.50
80228;DHT22;69539;42.138;24.742;2023-05-23T02:36:19;20.20;45.40
80228;DHT22;69539;42.138;24.742;2023-05-23T02:38:45;20.20;45.50
80228;DHT22;69539;42.138;24.742;2023-05-23T02:41:10;20.10;45.40
80228;DHT22;69539;42.138;24.742;2023-05-23T02:43:37;20.10;45.40
80228;DHT22;69539;42.138;24.742;2023-05-23T02:46:02;20.10;45.50
80228;DHT22;69539;42.138;24.742;2023-05-23T02:48:28;20.10;45.50
80228;DHT22;69539;42.138;24.742;2023-05-23T02:50:54;20.10;45.50
80228;DHT22;69539;42.138;24.742;2023-05-23T02:53:19;20.10;45.60
80228;DHT22;69539;42.138;24.742;2023-05-23T02:55:46;20.10;45.60
80228;DHT22;69539;42.138;24.742;2023-05-23T02:58:12;20.00;45.60
80228;DHT22;69539;42.138;24.742;2023-05-23T03:00:38;20.00;45.60
80228;DHT22;69539;42.138;24.742;2023-05-23T03:03:03;20.00;45.60
80228;DHT22;69539;42.138;24.742;2023-05-23T03:05:29;20.00;45.50
80228;DHT22;69539;42.138;24.742;2023-05-23T03:07:55;20.00;45.50
80228;DHT22;69539;42.138;24.742;2023-05-23T03:10:22;20.00;45.40
80228;DHT22;69539;42.138;24.742;2023-05-23T03:12:47;20.00;45.30
80228;DHT22;69539;42.138;24.742;2023-05-23T03:15:13;20.00;45.30
80228;DHT22;69539;42.138;24.742;2023-05-23T03:17:39;19.90;45.20
80228;DHT22;69539;42.138;24.742;2023-05-23T03:20:05;19.90;45.20
80228;DHT22;69539;42.138;24.742;2023-05-23T03:22:34;19.90;45.40
80228;DHT22;69539;42.138;24.742;2023-05-23T03:25:00;20.00;45.40
80228;DHT22;69539;42.138;24.742;2023-05-23T03:27:26;19.90;45.40
80228;DHT22;69539;42.138;24.742;2023-05-23T03:29:51;19.90;45.50
80228;DHT22;69539;42.138;24.742;2023-05-23T03:32:17;20.00;45.60
80228;DHT22;69539;42.138;24.742;2023-05-23T03:34:43;19.90;45.50
80228;DHT22;69539;42.138;24.742;2023-05-23T03:37:08;19.90;45.60
80228;DHT22;69539;42.138;24.742;2023-05-23T03:39:34;19.90;45.40
80228;DHT22;69539;42.138;24.742;2023-05-23T03:42:00;19.90;45.40
80228;DHT22;69539;42.138;24.742;2023-05-23T03:44:25;19.90;45.40
80228;DHT22;69539;42.138;24.742;2023-05-23T03:46:51;19.90;45.20
80228;DHT22;69539;42.138;24.742;2023-05-23T03:49:17;19.90;45.10
80228;DHT22;69539;42.138;24.742;2023-05-23T03:51:42;19.90;45.00
80228;DHT22;69539;42.138;24.742;2023-05-23T03:54:08;19.90;44.90
80228;DHT22;69539;42.138;24.742;2023-05-23T03:56:34;19.90;44.80
80228;DHT22;69539;42.138;24.742;2023-05-23T03:58:59;20.00;44.70
80228;DHT22;69539;42.138;24.742;2023-05-23T04:01:25;20.00;44.50
80228;DHT22;69539;42.138;24.742;2023-05-23T04:03:52;20.00;44.50
80228;DHT22;69539;42.138;24.742;2023-05-23T04:06:18;20.00;44.30
80228;DHT22;69539;42.138;24.742;2023-05-23T04:08:44;20.00;44.30
80228;DHT22;69539;42.138;24.742;2023-05-23T04:11:10;20.10;43.90
80228;DHT22;69539;42.138;24.742;2023-05-23T04:13:36;20.20;43.60
80228;DHT22;69539;42.138;24.742;2023-05-23T04:16:02;20.30;43.20
80228;DHT22;69539;42.138;24.742;2023-05-23T04:18:30;20.40;42.90
80228;DHT22;69539;42.138;24.742;2023-05-23T04:20:58;20.60;42.60
80228;DHT22;69539;42.138;24.742;2023-05-23T04:23:24;20.70;42.30
80228;DHT22;69539;42.138;24.742;2023-05-23T04:25:49;20.80;42.10
80228;DHT22;69539;42.138;24.742;2023-05-23T04:28:15;21.00;41.80
80228;DHT22;69539;42.138;24.742;2023-05-23T04:30:43;21.10;41.70
80228;DHT22;69539;42.138;24.742;2023-05-23T04:33:09;21.20;41.40
80228;DHT22;69539;42.138;24.742;2023-05-23T04:35:36;21.40;41.30
80228;DHT22;69539;42.138;24.742;2023-05-23T04:38:05;21.50;41.10
80228;DHT22;69539;42.138;24.742;2023-05-23T04:40:30;21.60;41.00
80228;DHT22;69539;42.138;24.742;2023-05-23T04:42:56;21.80;41.00
80228;DHT22;69539;42.138;24.742;2023-05-23T04:45:22;21.90;40.90
80228;DHT22;69539;42.138;24.742;2023-05-23T04:47:48;22.00;40.70
80228;DHT22;69539;42.138;24.742;2023-05-23T04:50:14;22.20;40.80
80228;DHT22;69539;42.138;24.742;2023-05-23T04:52:40;22.30;40.80
80228;DHT22;69539;42.138;24.742;2023-05-23T04:55:06;22.50;40.90
80228;DHT22;69539;42.138;24.742;2023-05-23T04:57:33;22.60;40.80
80228;DHT22;69539;42.138;24.742;2023-05-23T05:00:00;22.70;40.50
80228;DHT22;69539;42.138;24.742;2023-05-23T05:02:26;22.80;40.40
80228;DHT22;69539;42.138;24.742;2023-05-23T05:04:52;23.00;40.30
80228;DHT22;69539;42.138;24.742;2023-05-23T05:07:17;23.10;40.00
80228;DHT22;69539;42.138;24.742;2023-05-23T05:09:43;23.30;39.70
80228;DHT22;69539;42.138;24.742;2023-05-23T05:12:09;23.40;39.40
80228;DHT22;69539;42.138;24.742;2023-05-23T05:14:36;23.50;39.10
80228;DHT22;69539;42.138;24.742;2023-05-23T05:17:02;23.60;39.00
80228;DHT22;69539;42.138;24.742;2023-05-23T05:19:28;23.70;38.90
80228;DHT22;69539;42.138;24.742;2023-05-23T05:21:54;23.80;38.60
80228;DHT22;69539;42.138;24.742;2023-05-23T05:24:19;23.90;38.40
80228;DHT22;69539;42.138;24.742;2023-05-23T05:26:47;23.90;38.10
80228;DHT22;69539;42.138;24.742;2023-05-23T05:29:13;23.90;37.90
80228;DHT22;69539;42.138;24.742;2023-05-23T05:31:39;24.00;37.70
80228;DHT22;69539;42.138;24.742;2023-05-23T05:34:05;23.90;37.50
80228;DHT22;69539;42.138;24.742;2023-05-23T05:36:30;23.90;37.50
80228;DHT22;69539;42.138;24.742;2023-05-23T05:38:56;23.90;37.40
80228;DHT22;69539;42.138;24.742;2023-05-23T05:41:22;23.90;37.50
80228;DHT22;69539;42.138;24.742;2023-05-23T05:43:48;23.90;37.70
80228;DHT22;69539;42.138;24.742;2023-05-23T05:46:13;23.90;37.80
80228;DHT22;69539;42.138;24.742;2023-05-23T05:48:39;24.10;37.90
80228;DHT22;69539;42.138;24.742;2023-05-23T05:51:05;24.20;37.80
80228;DHT22;69539;42.138;24.742;2023-05-23T05:53:31;24.30;37.70
80228;DHT22;69539;42.138;24.742;2023-05-23T05:55:56;24.30;37.50
80228;DHT22;69539;42.138;24.742;2023-05-23T05:58:22;24.30;37.60
80228;DHT22;69539;42.138;24.742;2023-05-23T06:00:47;24.40;37.30
80228;DHT22;69539;42.138;24.742;2023-05-23T06:03:13;24.40;37.20
80228;DHT22;69539;42.138;24.742;2023-05-23T06:05:40;24.50;37.60
80228;DHT22;69539;42.138;24.742;2023-05-23T06:08:06;24.50;38.20
80228;DHT22;69539;42.138;24.742;2023-05-23T06:10:32;24.60;37.70
80228;DHT22;69539;42.138;24.742;2023-05-23T06:12:58;24.70;37.80
80228;DHT22;69539;42.138;24.742;2023-05-23T06:15:24;24.80;37.80
80228;DHT22;69539;42.138;24.742;2023-05-23T06:17:51;25.00;37.20
80228;DHT22;69539;42.138;24.742;2023-05-23T06:20:16;25.10;36.70
80228;DHT22;69539;42.138;24.742;2023-05-23T06:22:42;25.20;36.40
80228;DHT22;69539;42.138;24.742;2023-05-23T06:25:08;25.40;36.00
80228;DHT22;69539;42.138;24.742;2023-05-23T06:27:34;25.40;35.40
80228;DHT22;69539;42.138;24.742;2023-05-23T06:29:59;25.50;35.50
80228;DHT22;69539;42.138;24.742;2023-05-23T06:32:25;25.50;35.30
80228;DHT22;69539;42.138;24.742;2023-05-23T06:34:51;25.50;34.20
80228;DHT22;69539;42.138;24.742;2023-05-23T06:37:16;25.40;34.00
80228;DHT22;69539;42.138;24.742;2023-05-23T06:39:42;25.40;34.90
80228;DHT22;69539;42.138;24.742;2023-05-23T06:42:08;25.40;34.60
80228;DHT22;69539;42.138;24.742;2023-05-23T06:44:34;25.40;35.60
80228;DHT22;69539;42.138;24.742;2023-05-23T06:46:59;25.40;35.40
80228;DHT22;69539;42.138;24.742;2023-05-23T06:49:25;25.40;35.50
80228;DHT22;69539;42.138;24.742;2023-05-23T06:51:51;25.50;35.60
80228;DHT22;69539;42.138;24.742;2023-05-23T06:54:17;25.70;35.60
80228;DHT22;69539;42.138;24.742;2023-05-23T06:56:43;25.90;35.90
80228;DHT22;69539;42.138;24.742;2023-05-23T06:59:09;26.00;35.70
80228;DHT22;69539;42.138;24.742;2023-05-23T07:01:34;26.20;35.50
80228;DHT22;69539;42.138;24.742;2023-05-23T07:04:00;26.40;35.30
80228;DHT22;69539;42.138;24.742;2023-05-23T07:06:26;26.50;35.00
80228;DHT22;69539;42.138;24.742;2023-05-23T07:08:52;26.70;34.60
80228;DHT22;69539;42.138;24.742;2023-05-23T07:11:20;26.90;34.40
80228;DHT22;69539;42.138;24.742;2023-05-23T07:13:45;27.00;34.00
80228;DHT22;69539;42.138;24.742;2023-05-23T07:16:11;27.20;33.80
80228;DHT22;69539;42.138;24.742;2023-05-23T07:18:37;27.40;33.70
80228;DHT22;69539;42.138;24.742;2023-05-23T07:21:03;27.50;33.70
80228;DHT22;69539;42.138;24.742;2023-05-23T07:23:31;27.70;33.60
80228;DHT22;69539;42.138;24.742;2023-05-23T07:25:58;27.80;33.20
80228;DHT22;69539;42.138;24.742;2023-05-23T07:28:24;28.10;32.90
80228;DHT22;69539;42.138;24.742;2023-05-23T07:30:50;28.20;32.60
80228;DHT22;69539;42.138;24.742;2023-05-23T07:33:15;28.30;32.50
80228;DHT22;69539;42.138;24.742;2023-05-23T07:35:43;28.50;32.20
80228;DHT22;69539;42.138;24.742;2023-05-23T07:38:09;28.60;31.70
80228;DHT22;69539;42.138;24.742;2023-05-23T07:40:35;28.80;31.60
80228;DHT22;69539;42.138;24.742;2023-05-23T07:43:01;28.90;31.60
80228;DHT22;69539;42.138;24.742;2023-05-23T07:45:27;29.10;32.10
80228;DHT22;69539;42.138;24.742;2023-05-23T07:47:53;29.30;31.80
80228;DHT22;69539;42.138;24.742;2023-05-23T07:50:19;29.50;30.90
80228;DHT22;69539;42.138;24.742;2023-05-23T07:52:44;29.60;30.00
80228;DHT22;69539;42.138;24.742;2023-05-23T07:55:10;29.80;30.20
80228;DHT22;69539;42.138;24.742;2023-05-23T07:57:36;30.00;30.00
80228;DHT22;69539;42.138;24.742;2023-05-23T08:00:02;30.10;29.40
80228;DHT22;69539;42.138;24.742;2023-05-23T08:02:29;30.40;28.70
80228;DHT22;69539;42.138;24.742;2023-05-23T08:04:54;30.50;28.40
80228;DHT22;69539;42.138;24.742;2023-05-23T08:07:21;30.70;28.20
80228;DHT22;69539;42.138;24.742;2023-05-23T08:09:47;30.80;27.90
80228;DHT22;69539;42.138;24.742;2023-05-23T08:12:13;31.00;27.50
80228;DHT22;69539;42.138;24.742;2023-05-23T08:14:38;31.10;27.40
80228;DHT22;69539;42.138;24.742;2023-05-23T08:17:04;31.20;27.10
80228;DHT22;69539;42.138;24.742;2023-05-23T08:19:30;31.30;27.00
80228;DHT22;69539;42.138;24.742;2023-05-23T08:21:56;31.50;26.90
80228;DHT22;69539;42.138;24.742;2023-05-23T08:24:21;31.60;26.80
80228;DHT22;69539;42.138;24.742;2023-05-23T08:26:47;31.70;26.00
80228;DHT22;69539;42.138;24.742;2023-05-23T08:29:14;31.80;26.10
80228;DHT22;69539;42.138;24.742;2023-05-23T08:31:39;31.90;26.10
80228;DHT22;69539;42.138;24.742;2023-05-23T08:34:06;32.00;26.00
80228;DHT22;69539;42.138;24.742;2023-05-23T08:36:32;32.10;25.80
80228;DHT22;69539;42.138;24.742;2023-05-23T08:39:01;32.30;25.50
80228;DHT22;69539;42.138;24.742;2023-05-23T08:41:28;32.40;25.50
80228;DHT22;69539;42.138;24.742;2023-05-23T08:43:54;32.50;25.30
80228;DHT22;69539;42.138;24.742;2023-05-23T08:46:21;32.60;25.00
80228;DHT22;69539;42.138;24.742;2023-05-23T08:48:52;32.70;24.60
80228;DHT22;69539;42.138;24.742;2023-05-23T08:51:21;32.80;24.70
80228;DHT22;69539;42.138;24.742;2023-05-23T08:53:48;32.90;24.10
80228;DHT22;69539;42.138;24.742;2023-05-23T08:56:15;33.00;24.10
80228;DHT22;69539;42.138;24.742;2023-05-23T08:58:41;33.10;24.00
80228;DHT22;69539;42.138;24.742;2023-05-23T09:01:08;33.10;23.90
80228;DHT22;69539;42.138;24.742;2023-05-23T09:03:36;33.10;24.00
80228;DHT22;69539;42.138;24.742;2023-05-23T09:06:03;33.10;23.60
80228;DHT22;69539;42.138;24.742;2023-05-23T09:08:31;33.20;23.20
80228;DHT22;69539;42.138;24.742;2023-05-23T09:10:56;33.30;23.20
80228;DHT22;69539;42.138;24.742;2023-05-23T09:13:23;33.30;22.90
80228;DHT22;69539;42.138;24.742;2023-05-23T09:18:42;33.50;22.30
80228;DHT22;69539;42.138;24.742;2023-05-23T09:21:10;33.50;22.20
80228;DHT22;69539;42.138;24.742;2023-05-23T09:23:37;33.40;20.90
80228;DHT22;69539;42.138;24.742;2023-05-23T09:26:10;33.20;21.20
80228;DHT22;69539;42.138;24.742;2023-05-23T09:28:37;33.00;21.60
80228;DHT22;69539;42.138;24.742;2023-05-23T09:31:04;32.50;21.90
80228;DHT22;69539;42.138;24.742;2023-05-23T09:33:47;32.30;22.80
80228;DHT22;69539;42.138;24.742;2023-05-23T09:36:13;32.20;22.40
80228;DHT22;69539;42.138;24.742;2023-05-23T09:38:40;32.20;22.20
80228;DHT22;69539;42.138;24.742;2023-05-23T09:41:07;32.20;22.10
80228;DHT22;69539;42.138;24.742;2023-05-23T09:43:32;32.10;22.80
80228;DHT22;69539;42.138;24.742;2023-05-23T09:46:09;32.00;23.10
80228;DHT22;69539;42.138;24.742;2023-05-23T09:48:35;31.90;23.30
80228;DHT22;69539;42.138;24.742;2023-05-23T09:51:07;31.80;23.10
80228;DHT22;69539;42.138;24.742;2023-05-23T09:53:33;31.60;22.80
80228;DHT22;69539;42.138;24.742;2023-05-23T09:56:02;31.50;22.60
80228;DHT22;69539;42.138;24.742;2023-05-23T09:58:28;31.30;22.50
80228;DHT22;69539;42.138;24.742;2023-05-23T10:00:59;31.20;22.40
80228;DHT22;69539;42.138;24.742;2023-05-23T10:06:21;31.00;23.60
80228;DHT22;69539;42.138;24.742;2023-05-23T10:08:58;30.90;22.80
80228;DHT22;69539;42.138;24.742;2023-05-23T10:13:59;30.80;22.70
80228;DHT22;69539;42.138;24.742;2023-05-23T10:19:16;30.60;22.30
80228;DHT22;69539;42.138;24.742;2023-05-23T10:21:49;30.50;22.50
80228;DHT22;69539;42.138;24.742;2023-05-23T10:24:18;30.40;22.60
80228;DHT22;69539;42.138;24.742;2023-05-23T10:26:45;30.30;22.50
80228;DHT22;69539;42.138;24.742;2023-05-23T10:29:10;30.30;22.90
80228;DHT22;69539;42.138;24.742;2023-05-23T10:31:37;30.30;23.30
80228;DHT22;69539;42.138;24.742;2023-05-23T10:42:03;30.20;23.90
80228;DHT22;69539;42.138;24.742;2023-05-23T10:44:31;30.10;23.90
80228;DHT22;69539;42.138;24.742;2023-05-23T10:46:58;30.10;24.20
80228;DHT22;69539;42.138;24.742;2023-05-23T10:49:44;30.10;24.20
80228;DHT22;69539;42.138;24.742;2023-05-23T10:52:17;30.20;24.50
80228;DHT22;69539;42.138;24.742;2023-05-23T10:54:50;30.10;24.20
80228;DHT22;69539;42.138;24.742;2023-05-23T10:57:19;30.20;24.50
80228;DHT22;69539;42.138;24.742;2023-05-23T10:59:45;30.20;24.70
80228;DHT22;69539;42.138;24.742;2023-05-23T11:02:16;30.20;24.80
80228;DHT22;69539;42.138;24.742;2023-05-23T11:04:43;30.20;24.80
80228;DHT22;69539;42.138;24.742;2023-05-23T11:07:28;30.20;24.70
80228;DHT22;69539;42.138;24.742;2023-05-23T11:10:08;30.10;24.60
80228;DHT22;69539;42.138;24.742;2023-05-23T11:12:40;30.20;25.10
80228;DHT22;69539;42.138;24.742;2023-05-23T11:15:24;30.10;24.40
80228;DHT22;69539;42.138;24.742;2023-05-23T11:17:56;30.10;23.90
80228;DHT22;69539;42.138;24.742;2023-05-23T11:20:24;30.10;23.70
80228;DHT22;69539;42.138;24.742;2023-05-23T11:22:59;30.00;23.80
80228;DHT22;69539;42.138;24.742;2023-05-23T11:25:44;30.00;23.80
80228;DHT22;69539;42.138;24.742;2023-05-23T11:28:12;29.90;24.10
80228;DHT22;69539;42.138;24.742;2023-05-23T11:30:38;29.80;24.90
80228;DHT22;69539;42.138;24.742;2023-05-23T11:33:13;29.80;24.70
80228;DHT22;69539;42.138;24.742;2023-05-23T11:35:43;29.70;24.80
80228;DHT22;69539;42.138;24.742;2023-05-23T11:38:09;29.70;24.70
80228;DHT22;69539;42.138;24.742;2023-05-23T11:40:36;29.70;25.00
80228;DHT22;69539;42.138;24.742;2023-05-23T11:43:03;29.70;25.10
80228;DHT22;69539;42.138;24.742;2023-05-23T11:45:31;29.60;24.90
80228;DHT22;69539;42.138;24.742;2023-05-23T11:47:57;29.60;23.90
80228;DHT22;69539;42.138;24.742;2023-05-23T11:50:23;29.60;23.60
80228;DHT22;69539;42.138;24.742;2023-05-23T11:52:53;29.60;23.50
80228;DHT22;69539;42.138;24.742;2023-05-23T11:55:20;29.60;24.70
80228;DHT22;69539;42.138;24.742;2023-05-23T11:57:47;29.60;24.60
80228;DHT22;69539;42.138;24.742;2023-05-23T12:00:13;29.60;23.80
80228;DHT22;69539;42.138;24.742;2023-05-23T12:02:44;29.60;23.60
80228;DHT22;69539;42.138;24.742;2023-05-23T12:05:12;29.60;25.00
80228;DHT22;69539;42.138;24.742;2023-05-23T12:07:41;29.60;26.60
80228;DHT22;69539;42.138;24.742;2023-05-23T12:10:08;29.50;27.20
80228;DHT22;69539;42.138;24.742;2023-05-23T12:12:34;29.40;26.80
80228;DHT22;69539;42.138;24.742;2023-05-23T12:15:00;29.40;26.40
80228;DHT22;69539;42.138;24.742;2023-05-23T12:17:25;29.20;26.20
80228;DHT22;69539;42.138;24.742;2023-05-23T12:19:52;29.10;26.10
80228;DHT22;69539;42.138;24.742;2023-05-23T12:22:24;29.00;26.40
80228;DHT22;69539;42.138;24.742;2023-05-23T12:24:54;28.90;26.30
80228;DHT22;69539;42.138;24.742;2023-05-23T12:27:26;28.90;26.10
80228;DHT22;69539;42.138;24.742;2023-05-23T12:30:07;28.90;26.30
80228;DHT22;69539;42.138;24.742;2023-05-23T12:32:36;28.90;26.00
80228;DHT22;69539;42.138;24.742;2023-05-23T12:35:03;28.80;25.70
80228;DHT22;69539;42.138;24.742;2023-05-23T12:37:29;28.70;25.90
80228;DHT22;69539;42.138;24.742;2023-05-23T12:39:55;28.70;26.10
80228;DHT22;69539;42.138;24.742;2023-05-23T12:42:21;28.60;26.20
80228;DHT22;69539;42.138;24.742;2023-05-23T12:44:50;28.50;26.20
80228;DHT22;69539;42.138;24.742;2023-05-23T12:47:16;28.50;26.40
80228;DHT22;69539;42.138;24.742;2023-05-23T12:49:42;28.50;26.60
80228;DHT22;69539;42.138;24.742;2023-05-23T12:52:09;28.50;26.20
80228;DHT22;69539;42.138;24.742;2023-05-23T12:54:35;28.50;26.30
80228;DHT22;69539;42.138;24.742;2023-05-23T12:57:00;28.50;26.30
80228;DHT22;69539;42.138;24.742;2023-05-23T12:59:26;28.40;26.50
80228;DHT22;69539;42.138;24.742;2023-05-23T13:01:52;28.40;26.50
80228;DHT22;69539;42.138;24.742;2023-05-23T13:04:18;28.40;26.40
80228;DHT22;69539;42.138;24.742;2023-05-23T13:06:44;28.40;26.30
80228;DHT22;69539;42.138;24.742;2023-05-23T13:09:10;28.40;26.20
80228;DHT22;69539;42.138;24.742;2023-05-23T13:11:35;28.30;26.10
80228;DHT22;69539;42.138;24.742;2023-05-23T13:14:02;28.30;26.20
80228;DHT22;69539;42.138;24.742;2023-05-23T13:16:28;28.20;26.20
80228;DHT22;69539;42.138;24.742;2023-05-23T13:18:53;28.20;26.10
80228;DHT22;69539;42.138;24.742;2023-05-23T13:21:19;28.20;26.00
80228;DHT22;69539;42.138;24.742;2023-05-23T13:23:45;28.10;26.10
80228;DHT22;69539;42.138;24.742;2023-05-23T13:26:10;28.10;26.30
80228;DHT22;69539;42.138;24.742;2023-05-23T13:28:36;28.10;26.40
80228;DHT22;69539;42.138;24.742;2023-05-23T13:31:02;28.10;26.40
80228;DHT22;69539;42.138;24.742;2023-05-23T13:33:28;28.00;26.50
80228;DHT22;69539;42.138;24.742;2023-05-23T13:35:54;28.00;26.20
80228;DHT22;69539;42.138;24.742;2023-05-23T13:38:20;28.00;26.00
80228;DHT22;69539;42.138;24.742;2023-05-23T13:40:45;28.00;26.10
80228;DHT22;69539;42.138;24.742;2023-05-23T13:43:11;27.90;26.60
80228;DHT22;69539;42.138;24.742;2023-05-23T13:45:37;27.90;26.90
80228;DHT22;69539;42.138;24.742;2023-05-23T13:48:03;27.80;26.60
80228;DHT22;69539;42.138;24.742;2023-05-23T13:50:28;27.80;26.30
80228;DHT22;69539;42.138;24.742;2023-05-23T13:52:54;27.80;26.30
80228;DHT22;69539;42.138;24.742;2023-05-23T13:55:20;27.80;26.30
80228;DHT22;69539;42.138;24.742;2023-05-23T13:57:46;27.80;26.10
80228;DHT22;69539;42.138;24.742;2023-05-23T14:00:12;27.80;26.30
80228;DHT22;69539;42.138;24.742;2023-05-23T14:02:38;27.80;26.20
80228;DHT22;69539;42.138;24.742;2023-05-23T14:05:04;27.70;26.10
80228;DHT22;69539;42.138;24.742;2023-05-23T14:07:31;27.70;25.70
80228;DHT22;69539;42.138;24.742;2023-05-23T14:09:57;27.70;25.70
80228;DHT22;69539;42.138;24.742;2023-05-23T14:12:24;27.70;25.60
80228;DHT22;69539;42.138;24.742;2023-05-23T14:14:50;27.60;25.90
80228;DHT22;69539;42.138;24.742;2023-05-23T14:17:16;27.60;26.30
80228;DHT22;69539;42.138;24.742;2023-05-23T14:19:42;27.60;26.50
80228;DHT22;69539;42.138;24.742;2023-05-23T14:22:07;27.70;26.80
80228;DHT22;69539;42.138;24.742;2023-05-23T14:24:33;27.70;26.50
80228;DHT22;69539;42.138;24.742;2023-05-23T14:26:59;27.60;26.60
80228;DHT22;69539;42.138;24.742;2023-05-23T14:29:24;27.60;26.60
80228;DHT22;69539;42.138;24.742;2023-05-23T14:31:50;27.60;26.70
80228;DHT22;69539;42.138;24.742;2023-05-23T14:34:16;27.60;26.90
80228;DHT22;69539;42.138;24.742;2023-05-23T14:36:42;27.60;27.10
80228;DHT22;69539;42.138;24.742;2023-05-23T14:39:07;27.60;27.60
80228;DHT22;69539;42.138;24.742;2023-05-23T14:41:33;27.60;28.00
80228;DHT22;69539;42.138;24.742;2023-05-23T14:43:59;27.60;28.20
80228;DHT22;69539;42.138;24.742;2023-05-23T14:46:25;27.60;28.40
80228;DHT22;69539;42.138;24.742;2023-05-23T14:48:51;27.60;28.60
80228;DHT22;69539;42.138;24.742;2023-05-23T14:51:16;27.60;28.70
80228;DHT22;69539;42.138;24.742;2023-05-23T14:53:42;27.60;28.80
80228;DHT22;69539;42.138;24.742;2023-05-23T14:56:08;27.60;28.90
80228;DHT22;69539;42.138;24.742;2023-05-23T14:58:33;27.60;28.90
80228;DHT22;69539;42.138;24.742;2023-05-23T15:00:59;27.60;28.90
80228;DHT22;69539;42.138;24.742;2023-05-23T15:03:25;27.60;28.90
80228;DHT22;69539;42.138;24.742;2023-05-23T15:05:51;27.60;29.00
80228;DHT22;69539;42.138;24.742;2023-05-23T15:08:16;27.60;29.10
80228;DHT22;69539;42.138;24.742;2023-05-23T15:10:43;27.60;29.00
80228;DHT22;69539;42.138;24.742;2023-05-23T15:13:10;27.50;28.90
80228;DHT22;69539;42.138;24.742;2023-05-23T15:15:35;27.50;28.80
80228;DHT22;69539;42.138;24.742;2023-05-23T15:18:05;27.50;28.80
80228;DHT22;69539;42.138;24.742;2023-05-23T15:20:34;27.40;29.00
80228;DHT22;69539;42.138;24.742;2023-05-23T15:23:02;27.40;28.90
80228;DHT22;69539;42.138;24.742;2023-05-23T15:25:28;27.40;29.00
80228;DHT22;69539;42.138;24.742;2023-05-23T15:27:54;27.40;29.10
80228;DHT22;69539;42.138;24.742;2023-05-23T15:30:20;27.40;29.20
80228;DHT22;69539;42.138;24.742;2023-05-23T15:32:46;27.30;29.10
80228;DHT22;69539;42.138;24.742;2023-05-23T15:35:12;27.30;29.30
80228;DHT22;69539;42.138;24.742;2023-05-23T15:37:41;27.30;29.40